map of STT home
STT - Airport
Location
City:  Charlotte Amalie, St. Thomas, Virgin Islands, United States
Name:Cyril E. King Airport
ICAO:TIST
IATA:STT
FAA LID:STT

Details
Type:Airport (Part 139 Class I)
Use:Public/Civil, International (customs landing rights)
Latitude:1820'14"N (18.337306)
Longitude:6458'24"W (-64.973332)
Datum:WGS 1984
Elevation:23 ft (7 m)
Variation:13.66W (WMM2015v2 magnetic declination)
-0.03 annual change
Runways:1
Longest:7000 × 150 ft (2134 × 45.5 m), paved

Time
Time Zone:UTC-4
Local Time:

Weather
METAR:TIST 041353Z 11010KT 10SM FEW030 27/20 A3003 RMK AO2 SLP170 T02670200 $
TAF:TIST 041141Z 0412/0512 10008KT P6SM FEW025
FM041400 13012KT P6SM SCT030
FM042200 09008KT P6SM FEW025

Related Locations
Nearby:
Farthest:BWB: 12255 mi / 19722 km
Barrow Island, WA, AU

Find:

   beyond  
but within

Other Information
Maps:
NOTAMs:
Links:
Sources:

  
  • flag of United States
  • flag of Virgin Islands
  

Airport Diagram

Airport diagram for STT

Airport diagram PDF from FAA

Sectional Chart

Flight Planning
at skyvector.com

Satellite Image

Google Maps Satellite view

 

Copyright © 2004-2019 Karl L. Swartz. All rights reserved.
The Great Circle Mapper name and logo are trademarks of the Great Circle Mapper.
All other trademarks mentioned herein belong to their respective owners.
Please see credits for attibutions and further copyright information.

  Follow gcmap on Facebook Follow gcmap on Twitter GCmap on LinkedIn

hCard Microformat

Geo Microformat